createdAt,value
2022-11-24T00:04:32.783Z,61.05
2022-11-24T00:09:34.995Z,61.28
2022-11-24T00:14:37.027Z,60.59
2022-11-24T00:19:39.054Z,60.80
2022-11-24T00:24:41.102Z,60.34
2022-11-24T00:29:43.240Z,60.38
2022-11-24T00:34:45.550Z,60.36
2022-11-24T00:39:47.590Z,60.55
2022-11-24T00:44:49.688Z,60.04
2022-11-24T00:49:51.784Z,59.71
2022-11-24T00:54:53.821Z,60.22
2022-11-24T00:59:55.786Z,60.27
2022-11-24T01:04:57.776Z,59.72
2022-11-24T01:09:59.841Z,59.22
2022-11-24T01:15:02.195Z,59.16
2022-11-24T01:20:05.427Z,59.51
2022-11-24T01:25:09.232Z,59.81
2022-11-24T01:30:11.512Z,59.26
2022-11-24T01:35:13.579Z,59.75
2022-11-24T01:40:15.908Z,59.52
2022-11-24T01:45:23.907Z,59.94
2022-11-24T01:50:26.109Z,59.80
2022-11-24T01:55:34.669Z,60.07
2022-11-24T02:00:39.218Z,59.89
2022-11-24T02:05:51.049Z,59.91
2022-11-24T02:10:54.941Z,59.50
2022-11-24T02:15:57.009Z,60.00
2022-11-24T02:21:01.532Z,59.71
2022-11-24T02:26:18.524Z,59.67
2022-11-24T02:31:20.666Z,60.18
2022-11-24T02:36:22.702Z,59.77
2022-11-24T02:41:26.976Z,59.82
2022-11-24T02:46:30.097Z,60.43
2022-11-24T02:51:34.502Z,60.88
2022-11-24T02:56:36.609Z,61.43
2022-11-24T03:01:38.685Z,62.28
2022-11-24T03:06:40.883Z,61.63
2022-11-24T03:11:43.094Z,62.79
2022-11-24T03:16:45.144Z,63.04
2022-11-24T03:21:47.232Z,62.95
2022-11-24T03:26:49.301Z,63.11
2022-11-24T03:31:51.387Z,62.80
2022-11-24T03:36:53.349Z,62.30
2022-11-24T03:41:55.476Z,61.92
2022-11-24T03:46:57.752Z,62.65
2022-11-24T03:52:02.657Z,62.64
2022-11-24T03:57:08.790Z,62.88
2022-11-24T04:02:10.931Z,63.58
2022-11-24T04:07:12.956Z,63.10
2022-11-24T04:12:33.657Z,62.38
2022-11-24T04:17:35.770Z,62.12
2022-11-24T04:22:38.242Z,61.74
2022-11-24T04:27:40.434Z,61.67
2022-11-24T04:32:42.522Z,61.93
2022-11-24T04:37:44.645Z,62.11
2022-11-24T04:42:55.081Z,60.87
2022-11-24T04:47:57.085Z,60.06
2022-11-24T04:52:59.167Z,59.81
2022-11-24T04:58:02.281Z,59.31
2022-11-24T05:03:05.021Z,58.68
2022-11-24T05:08:07.035Z,59.29
2022-11-24T05:13:13.664Z,58.65
2022-11-24T05:18:16.871Z,58.48
2022-11-24T05:23:18.935Z,58.48
2022-11-24T05:28:21.073Z,58.93
2022-11-24T05:33:23.200Z,58.47
2022-11-24T05:38:25.223Z,58.12
2022-11-24T05:43:27.413Z,58.44
2022-11-24T05:48:29.609Z,58.42
2022-11-24T05:53:31.705Z,58.79
2022-11-24T05:58:33.712Z,58.15
2022-11-24T06:03:35.856Z,58.50
2022-11-24T06:08:38.002Z,58.39
2022-11-24T06:13:41.834Z,57.72
2022-11-24T06:18:44.134Z,57.59
2022-11-24T06:23:49.397Z,57.03
2022-11-24T06:28:51.382Z,57.14
2022-11-24T06:33:53.834Z,56.93
2022-11-24T06:38:55.902Z,57.08
2022-11-24T06:43:58.181Z,57.06
2022-11-24T06:49:00.731Z,56.65
2022-11-24T06:54:06.757Z,56.70
2022-11-24T06:59:17.609Z,57.08
2022-11-24T07:04:19.966Z,56.88
2022-11-24T07:09:21.980Z,56.01
2022-11-24T07:14:25.977Z,53.80
2022-11-24T07:19:28.683Z,52.46
2022-11-24T07:24:30.774Z,50.48
2022-11-24T07:29:32.785Z,50.78
2022-11-24T07:34:35.025Z,52.44
2022-11-24T07:39:37.294Z,52.02
2022-11-24T07:44:40.729Z,53.03
2022-11-24T07:49:42.733Z,52.94
2022-11-24T07:54:44.744Z,53.67
2022-11-24T07:59:46.765Z,53.45
2022-11-24T08:04:48.833Z,53.99
2022-11-24T08:09:52.256Z,54.96
2022-11-24T08:14:54.350Z,55.20
2022-11-24T08:19:56.410Z,55.54
2022-11-24T08:24:58.418Z,55.83
2022-11-24T08:30:00.390Z,56.01
2022-11-24T08:35:13.923Z,55.78
2022-11-24T08:40:17.023Z,55.30
2022-11-24T08:45:21.458Z,55.05
2022-11-24T08:50:25.690Z,55.85
2022-11-24T08:55:27.800Z,55.33
2022-11-24T09:00:29.873Z,55.42
2022-11-24T09:10:54.824Z,54.69
2022-11-24T09:15:56.869Z,54.70
2022-11-24T09:21:08.445Z,54.84
2022-11-24T09:26:19.576Z,54.69
2022-11-24T09:31:24.150Z,54.59
2022-11-24T09:36:26.502Z,54.65
2022-11-24T09:41:40.662Z,55.02
2022-11-24T09:47:16.476Z,55.31
2022-11-24T09:52:47.398Z,55.59
2022-11-24T09:57:59.112Z,55.59
2022-11-24T10:03:00.988Z,56.43
2022-11-24T10:08:39.389Z,56.28
2022-11-24T10:14:03.115Z,55.85
2022-11-24T10:19:17.648Z,55.55
2022-11-24T10:24:28.565Z,55.19
2022-11-24T10:29:39.933Z,55.41
2022-11-24T10:34:45.405Z,55.40
2022-11-24T10:40:00.819Z,55.52
2022-11-24T10:45:15.130Z,56.43
2022-11-24T10:50:19.788Z,56.44
2022-11-24T10:55:21.872Z,56.17
2022-11-24T11:00:23.845Z,56.55
2022-11-24T11:05:42.427Z,56.17
2022-11-24T11:10:45.676Z,55.94
2022-11-24T11:15:47.978Z,56.30
2022-11-24T11:20:58.497Z,56.37
2022-11-24T11:26:25.263Z,56.57
2022-11-24T11:31:28.417Z,56.44
2022-11-24T11:36:32.909Z,57.47
2022-11-24T11:41:41.214Z,57.37
2022-11-24T11:46:45.165Z,57.25
2022-11-24T11:52:05.459Z,57.45
2022-11-24T11:57:25.866Z,58.19
2022-11-24T12:02:53.654Z,57.96
2022-11-24T12:08:12.502Z,57.88
2022-11-24T12:13:35.550Z,57.26
2022-11-24T12:19:03.202Z,57.73
2022-11-24T12:24:30.575Z,57.69
2022-11-24T12:30:02.418Z,58.39
2022-11-24T12:35:20.445Z,58.22
2022-11-24T12:40:46.688Z,58.32
2022-11-24T12:46:17.213Z,58.82
2022-11-24T12:51:24.365Z,59.07
2022-11-24T12:56:51.093Z,58.11
2022-11-24T13:02:02.131Z,59.05
2022-11-24T13:07:19.467Z,58.66
2022-11-24T13:12:22.287Z,58.82
2022-11-24T13:17:38.254Z,59.42
2022-11-24T13:22:58.749Z,59.07
2022-11-24T13:28:03.076Z,59.18
2022-11-24T13:33:16.178Z,59.74
2022-11-24T13:38:51.087Z,59.14
2022-11-24T13:44:17.562Z,58.65
2022-11-24T13:49:20.769Z,59.66
2022-11-24T13:54:25.697Z,59.73
2022-11-24T13:59:34.693Z,59.88
2022-11-24T14:04:39.594Z,59.68
2022-11-24T14:09:51.115Z,59.39
2022-11-24T14:15:20.578Z,59.80
2022-11-24T14:20:25.489Z,59.81
2022-11-24T14:25:32.489Z,59.83
2022-11-24T14:30:34.528Z,59.50
2022-11-24T14:35:49.401Z,59.05
2022-11-24T14:40:54.138Z,59.17
2022-11-24T14:45:59.484Z,59.54
2022-11-24T14:51:15.013Z,59.42
2022-11-24T14:56:28.944Z,59.40
2022-11-24T15:01:34.130Z,60.18
2022-11-24T15:06:36.588Z,59.82
2022-11-24T15:11:38.855Z,59.15
2022-11-24T15:16:41.018Z,59.55
2022-11-24T15:21:43.054Z,59.91
2022-11-24T15:26:45.853Z,60.21
2022-11-24T15:31:52.325Z,60.11
2022-11-24T15:36:54.584Z,59.70
2022-11-24T15:41:56.716Z,60.30
2022-11-24T15:46:58.801Z,59.90
2022-11-24T15:52:01.090Z,59.80
2022-11-24T15:57:03.184Z,59.77
2022-11-24T16:02:05.212Z,59.38
2022-11-24T16:07:12.341Z,59.09
2022-11-24T16:12:14.385Z,59.13
2022-11-24T16:17:16.375Z,59.63
2022-11-24T16:22:18.579Z,59.63
2022-11-24T16:27:20.678Z,59.86
2022-11-24T16:32:22.743Z,60.11
2022-11-24T16:37:24.845Z,60.07
2022-11-24T16:42:26.981Z,59.92
2022-11-24T16:47:29.105Z,60.27
2022-11-24T16:52:31.167Z,59.97
2022-11-24T16:57:33.404Z,60.98
2022-11-24T17:02:35.672Z,60.79
2022-11-24T17:07:39.397Z,60.42
2022-11-24T17:12:41.497Z,59.87
2022-11-24T17:18:08.369Z,60.01
2022-11-24T17:23:06.696Z,60.56
2022-11-24T17:28:08.669Z,60.61
2022-11-24T17:33:10.768Z,60.38
2022-11-24T17:38:12.982Z,60.27
2022-11-24T17:43:14.965Z,60.38
2022-11-24T17:48:17.038Z,59.63
2022-11-24T17:53:19.020Z,59.81
2022-11-24T17:58:21.172Z,59.92
2022-11-24T18:03:24.166Z,60.16
2022-11-24T18:08:26.270Z,59.86
2022-11-24T18:13:55.332Z,59.85
2022-11-24T18:19:07.906Z,59.78
2022-11-24T18:24:12.512Z,59.68
2022-11-24T18:29:14.507Z,59.38
2022-11-24T18:34:16.554Z,59.15
2022-11-24T18:39:19.372Z,59.19
2022-11-24T18:44:22.687Z,59.51
2022-11-24T18:49:24.734Z,59.36
2022-11-24T18:54:28.188Z,59.47
2022-11-24T18:59:30.238Z,59.60
2022-11-24T19:04:32.236Z,59.55
2022-11-24T19:09:34.266Z,59.87
2022-11-24T19:14:36.731Z,59.93
2022-11-24T19:19:39.835Z,59.76
2022-11-24T19:24:41.907Z,59.54
2022-11-24T19:29:43.990Z,60.19
2022-11-24T19:34:46.072Z,60.02
2022-11-24T19:39:48.392Z,60.04
2022-11-24T19:44:56.200Z,60.29
2022-11-24T19:49:58.929Z,60.72
2022-11-24T19:55:02.265Z,60.36
2022-11-24T20:00:07.785Z,61.58
2022-11-24T20:05:09.856Z,60.88
2022-11-24T20:10:11.918Z,60.74
2022-11-24T20:15:15.095Z,60.70
2022-11-24T20:20:17.253Z,60.66
2022-11-24T20:25:19.375Z,60.70
2022-11-24T20:30:21.440Z,59.85
2022-11-24T20:35:23.450Z,59.43
2022-11-24T20:40:25.485Z,59.45
2022-11-24T20:45:27.591Z,59.22
2022-11-24T20:50:29.650Z,58.91
2022-11-24T20:55:33.697Z,59.17
2022-11-24T21:00:35.882Z,59.83
2022-11-24T21:05:38.056Z,60.03
2022-11-24T21:10:40.142Z,60.99
2022-11-24T21:15:42.209Z,61.32
2022-11-24T21:20:44.735Z,61.44
2022-11-24T21:25:46.794Z,60.50
2022-11-24T21:30:48.888Z,60.56
2022-11-24T21:35:50.948Z,60.26
2022-11-24T21:40:53.029Z,59.54
2022-11-24T21:45:55.391Z,59.47
2022-11-24T21:50:59.033Z,59.50
2022-11-24T21:56:03.574Z,59.92
2022-11-24T22:01:10.714Z,60.96
2022-11-24T22:06:13.482Z,60.37
2022-11-24T22:11:23.838Z,59.85
2022-11-24T22:16:26.062Z,60.05
2022-11-24T22:21:33.212Z,59.68
2022-11-24T22:26:35.896Z,60.32
2022-11-24T22:31:37.905Z,60.63
2022-11-24T22:36:39.945Z,60.52
2022-11-24T22:41:41.973Z,60.39
2022-11-24T22:46:43.948Z,59.87
2022-11-24T22:51:45.988Z,59.71
2022-11-24T22:56:48.050Z,59.99
2022-11-24T23:01:50.186Z,59.99
2022-11-24T23:06:52.369Z,60.25
2022-11-24T23:11:54.321Z,60.23
2022-11-24T23:16:56.364Z,59.84
2022-11-24T23:21:58.510Z,59.60
2022-11-24T23:27:00.477Z,59.04
2022-11-24T23:32:02.510Z,59.35
2022-11-24T23:37:04.630Z,59.05
2022-11-24T23:42:06.681Z,59.10
2022-11-24T23:47:08.719Z,59.27
2022-11-24T23:52:10.911Z,59.56
2022-11-24T23:57:12.933Z,59.86
